Time;durP1;ratioP1;P1;durP2;ratioP2;P2;SDS_P1;SDS_P2;PMS_P1;PMS_P2;Temp;Humidity;BMP_temperature;BMP_pressure;BME280_temperature;BME280_humidity;BME280_pressure;Samples;Min_cycle;Max_cycle;Signal;HPM_P1;HPM_P2
2023/03/10 00:00:32;;;;;;;3.88;1.50;;;7.20;99.90;;;;;;5060873;28;20109;-88
2023/03/10 00:02:58;;;;;;;3.03;1.58;;;7.10;99.90;;;;;;5060746;28;20035;-88
2023/03/10 00:05:24;;;;;;;6.57;1.80;;;7.10;99.90;;;;;;5077714;28;20438;-88
2023/03/10 00:07:50;;;;;;;5.95;1.30;;;7.10;99.90;;;;;;5060467;28;20042;-88
2023/03/10 00:10:16;;;;;;;6.32;1.58;;;7.00;99.90;;;;;;5060389;28;20034;-87
2023/03/10 00:12:42;;;;;;;4.05;1.48;;;7.00;99.90;;;;;;5073207;28;20467;-88
2023/03/10 00:15:09;;;;;;;9.15;3.15;;;6.90;99.90;;;;;;5076675;28;20122;-87
2023/03/10 00:17:35;;;;;;;6.05;1.58;;;6.90;99.90;;;;;;5060436;28;20704;-87
2023/03/10 00:20:01;;;;;;;5.57;1.30;;;6.90;99.90;;;;;;5076995;28;20085;-88
2023/03/10 00:22:27;;;;;;;10.13;1.90;;;6.90;99.90;;;;;;5060116;28;20057;-88
2023/03/10 00:24:52;;;;;;;5.03;1.50;;;6.90;99.90;;;;;;5060341;28;20032;-88
2023/03/10 00:27:33;;;;;;;7.88;1.50;;;6.90;99.90;;;;;;5093743;28;20024;-88
2023/03/10 00:29:59;;;;;;;3.88;1.60;;;6.90;99.90;;;;;;5060206;28;20024;-87
2023/03/10 00:32:25;;;;;;;3.42;1.40;;;6.90;99.90;;;;;;5076651;28;20032;-88
2023/03/10 00:34:50;;;;;;;4.30;1.27;;;6.80;99.90;;;;;;5060247;28;20032;-88
2023/03/10 00:37:18;;;;;;;3.45;1.60;;;6.90;99.90;;;;;;5060148;28;20029;-88
2023/03/10 00:39:44;;;;;;;5.53;1.40;;;6.80;99.90;;;;;;5059947;28;20028;-88
2023/03/10 00:42:28;;;;;;;7.35;1.70;;;6.80;99.90;;;;;;5059906;28;20032;-88
2023/03/10 00:44:54;;;;;;;4.07;1.55;;;6.90;99.90;;;;;;5060075;28;20024;-88
2023/03/10 00:47:21;;;;;;;4.50;1.50;;;6.90;99.90;;;;;;5057857;28;20021;-88
2023/03/10 00:50:09;;;;;;;2.88;1.52;;;6.90;99.90;;;;;;5092999;28;20115;-88
2023/03/10 00:52:35;;;;;;;5.45;2.05;;;6.90;99.90;;;;;;5076779;28;20078;-88
2023/03/10 00:55:01;;;;;;;3.30;1.30;;;6.90;99.90;;;;;;5059759;28;20031;-88
2023/03/10 00:57:27;;;;;;;5.40;1.60;;;6.90;99.90;;;;;;5059689;28;20028;-88
2023/03/10 00:59:53;;;;;;;4.35;1.50;;;6.90;99.90;;;;;;5059877;28;20052;-88
2023/03/10 01:02:19;;;;;;;8.40;1.50;;;7.00;99.90;;;;;;5059415;28;20082;-88
2023/03/10 01:04:46;;;;;;;3.88;1.70;;;6.90;99.90;;;;;;5059526;28;20053;-88
2023/03/10 01:07:12;;;;;;;10.38;1.92;;;6.90;99.90;;;;;;5062788;28;20082;-89
2023/03/10 01:09:38;;;;;;;3.35;1.23;;;6.90;99.90;;;;;;5085940;28;20107;-88
2023/03/10 01:12:04;;;;;;;3.35;1.33;;;6.80;99.90;;;;;;5070641;28;20059;-88
2023/03/10 01:14:30;;;;;;;4.65;1.90;;;6.80;99.90;;;;;;5075140;28;20464;-88
2023/03/10 01:16:58;;;;;;;4.03;1.65;;;6.80;99.90;;;;;;5068292;28;20111;-89
2023/03/10 01:19:24;;;;;;;4.90;1.50;;;6.80;99.90;;;;;;5065372;28;20029;-88
2023/03/10 01:21:49;;;;;;;5.22;1.33;;;6.80;99.90;;;;;;5065097;28;20024;-88
2023/03/10 01:24:16;;;;;;;7.95;1.50;;;6.80;99.90;;;;;;5081262;28;20051;-88
2023/03/10 01:26:42;;;;;;;3.22;1.38;;;6.70;99.90;;;;;;5054165;28;20077;-88
2023/03/10 01:29:07;;;;;;;8.05;2.75;;;6.70;99.90;;;;;;5072220;28;20024;-88
2023/03/10 01:31:33;;;;;;;6.18;1.83;;;6.70;99.90;;;;;;5073567;28;20163;-88
2023/03/10 01:33:59;;;;;;;3.85;1.92;;;6.70;99.90;;;;;;5055686;28;20032;-87
2023/03/10 01:36:26;;;;;;;5.55;1.75;;;6.70;99.90;;;;;;5057922;28;20036;-87
2023/03/10 01:38:54;;;;;;;4.90;1.50;;;6.70;99.90;;;;;;5051098;28;20052;-88
2023/03/10 01:41:21;;;;;;;8.55;1.48;;;6.70;99.90;;;;;;5072225;28;20039;-87
2023/03/10 01:43:49;;;;;;;3.08;1.50;;;6.70;99.90;;;;;;5053559;28;20020;-87
2023/03/10 01:46:57;;;;;;;4.53;1.83;;;6.70;99.90;;;;;;5059040;28;20356;-87
2023/03/10 01:49:38;;;;;;;5.13;1.95;;;6.70;99.90;;;;;;5058587;28;20043;-87
2023/03/10 01:52:20;;;;;;;5.72;2.22;;;6.70;99.90;;;;;;5075408;28;20016;-87
2023/03/10 01:54:55;;;;;;;5.70;2.17;;;6.70;99.90;;;;;;5075230;28;20106;-87
2023/03/10 01:57:26;;;;;;;4.03;1.63;;;6.70;99.90;;;;;;5058560;28;21238;-88
2023/03/10 01:59:53;;;;;;;7.93;2.70;;;6.70;99.90;;;;;;5058930;28;20052;-88
2023/03/10 02:02:19;;;;;;;4.53;1.52;;;6.60;99.90;;;;;;5058852;28;20105;-88
2023/03/10 02:04:58;;;;;;;6.43;1.60;;;6.60;99.90;;;;;;5059159;28;20012;-87
2023/03/10 02:07:29;;;;;;;4.28;1.75;;;6.60;99.90;;;;;;5109190;28;20030;-88
2023/03/10 02:09:55;;;;;;;3.50;1.50;;;6.60;99.90;;;;;;5058788;28;20375;-88
2023/03/10 02:12:21;;;;;;;3.38;1.90;;;6.60;99.90;;;;;;5108808;28;20024;-87
2023/03/10 02:14:49;;;;;;;3.58;1.75;;;6.70;99.90;;;;;;5058570;28;20383;-88
2023/03/10 02:17:18;;;;;;;3.47;1.70;;;6.60;99.90;;;;;;5072658;28;20111;-87
2023/03/10 02:20:21;;;;;;;6.15;2.10;;;6.60;99.90;;;;;;5058342;28;20028;-88
2023/03/10 02:22:48;;;;;;;7.22;2.30;;;6.60;99.90;;;;;;5075141;28;20118;-88
2023/03/10 02:25:23;;;;;;;5.75;2.33;;;6.60;99.90;;;;;;5058318;28;20024;-88
2023/03/10 02:27:49;;;;;;;7.10;3.22;;;6.60;99.90;;;;;;5109215;28;20375;-88
2023/03/10 02:30:23;;;;;;;6.30;4.18;;;6.60;99.90;;;;;;5074958;28;20024;-87
2023/03/10 02:32:56;;;;;;;7.18;4.05;;;6.60;99.90;;;;;;5108762;28;20020;-88
2023/03/10 02:35:23;;;;;;;11.20;4.32;;;6.60;99.90;;;;;;5075153;28;20020;-88
2023/03/10 02:37:53;;;;;;;9.13;4.40;;;6.70;99.90;;;;;;5060054;28;20118;-88
2023/03/10 02:40:32;;;;;;;9.20;5.18;;;6.70;99.90;;;;;;5061972;28;20064;-87
2023/03/10 02:43:06;;;;;;;10.65;5.93;;;6.70;99.90;;;;;;5062104;28;20032;-87
2023/03/10 02:45:36;;;;;;;12.45;5.35;;;6.70;99.90;;;;;;5078529;28;20088;-87
2023/03/10 02:48:02;;;;;;;11.50;6.35;;;6.70;99.90;;;;;;5090587;28;20468;-87
2023/03/10 02:50:33;;;;;;;17.50;6.70;;;6.70;99.90;;;;;;5061877;28;20032;-87
2023/03/10 02:53:10;;;;;;;9.43;5.82;;;6.70;99.90;;;;;;5062308;28;20024;-87
2023/03/10 02:55:36;;;;;;;10.85;6.22;;;6.70;99.90;;;;;;5061702;28;20024;-88
2023/03/10 02:58:02;;;;;;;13.57;6.90;;;6.70;99.90;;;;;;5061931;28;20022;-88
2023/03/10 03:00:29;;;;;;;11.02;6.10;;;6.70;99.90;;;;;;5061806;28;20035;-87
2023/03/10 03:02:56;;;;;;;18.05;6.65;;;6.70;99.90;;;;;;5061713;28;20038;-87
2023/03/10 03:05:22;;;;;;;14.60;6.47;;;6.70;99.90;;;;;;5061893;28;20020;-88
2023/03/10 03:07:48;;;;;;;11.50;6.28;;;6.80;99.90;;;;;;5061813;28;20024;-88
2023/03/10 03:10:14;;;;;;;10.68;6.18;;;6.80;99.90;;;;;;5078308;28;20028;-88
2023/03/10 03:12:39;;;;;;;10.77;6.47;;;6.70;99.90;;;;;;5095194;28;20372;-88
2023/03/10 03:15:07;;;;;;;12.10;6.63;;;6.80;99.90;;;;;;5095070;28;20061;-88
2023/03/10 03:17:33;;;;;;;18.73;6.05;;;6.80;99.90;;;;;;5061717;28;20031;-88
2023/03/10 03:19:59;;;;;;;12.20;6.07;;;6.80;99.90;;;;;;5078038;28;20028;-89
2023/03/10 03:22:25;;;;;;;17.65;6.93;;;6.80;99.90;;;;;;5079568;28;20020;-88
2023/03/10 03:24:51;;;;;;;14.32;6.50;;;6.70;99.90;;;;;;5065610;28;20027;-88
2023/03/10 03:27:17;;;;;;;13.68;6.25;;;6.70;99.90;;;;;;5078046;28;20364;-88
2023/03/10 03:30:05;;;;;;;10.82;6.05;;;6.80;99.90;;;;;;5061464;28;20039;-88
2023/03/10 03:32:31;;;;;;;11.63;7.63;;;6.80;99.90;;;;;;5061335;28;20518;-88
2023/03/10 03:34:58;;;;;;;12.07;6.15;;;6.80;99.90;;;;;;5061139;28;20063;-88
2023/03/10 03:37:24;;;;;;;11.35;5.28;;;6.70;99.90;;;;;;5077967;28;20134;-88
2023/03/10 03:39:50;;;;;;;10.23;4.85;;;6.80;99.90;;;;;;5111635;28;20027;-88
2023/03/10 03:42:35;;;;;;;11.55;5.60;;;6.80;99.90;;;;;;5061130;28;20048;-88
2023/03/10 03:45:01;;;;;;;9.95;5.25;;;6.70;99.90;;;;;;5055651;28;20110;-88
2023/03/10 03:47:39;;;;;;;9.65;4.78;;;6.80;99.90;;;;;;5060785;28;20119;-87
2023/03/10 03:50:06;;;;;;;18.27;5.10;;;6.80;99.90;;;;;;5060293;28;20115;-87
2023/03/10 03:52:33;;;;;;;12.75;4.70;;;6.80;99.90;;;;;;5111168;28;20407;-87
2023/03/10 03:54:59;;;;;;;9.80;4.50;;;6.80;99.90;;;;;;5061031;28;20024;-88
2023/03/10 03:57:25;;;;;;;14.52;4.35;;;6.80;99.90;;;;;;5077155;28;20428;-87
2023/03/10 03:59:51;;;;;;;13.52;4.57;;;6.80;99.90;;;;;;5106797;27;20375;-88
2023/03/10 04:02:17;;;;;;;13.93;4.70;;;6.80;99.90;;;;;;5068608;28;20023;-87
2023/03/10 04:04:43;;;;;;;11.65;4.35;;;6.80;99.90;;;;;;5060537;28;20584;-88
2023/03/10 04:07:09;;;;;;;7.28;4.03;;;6.80;99.90;;;;;;5060433;28;20102;-87
2023/03/10 04:09:50;;;;;;;10.20;4.53;;;6.80;99.90;;;;;;5060052;28;20059;-87
2023/03/10 04:12:16;;;;;;;11.48;4.70;;;6.80;99.90;;;;;;5093541;28;20028;-88
2023/03/10 04:14:45;;;;;;;10.75;4.60;;;6.80;99.90;;;;;;5093701;28;20027;-87
2023/03/10 04:17:10;;;;;;;9.18;4.03;;;6.80;99.90;;;;;;5060349;28;20024;-88
2023/03/10 04:19:36;;;;;;;10.35;4.35;;;6.80;99.90;;;;;;5060768;28;20028;-87
2023/03/10 04:22:07;;;;;;;9.38;4.50;;;6.80;99.90;;;;;;5060982;28;20031;-88
2023/03/10 04:24:37;;;;;;;14.02;5.53;;;6.80;99.90;;;;;;5060560;28;20028;-88
2023/03/10 04:27:03;;;;;;;8.93;5.22;;;6.80;99.90;;;;;;5093563;28;20020;-88
2023/03/10 04:29:29;;;;;;;12.93;5.43;;;6.80;99.90;;;;;;5076799;28;20026;-87
2023/03/10 04:32:09;;;;;;;10.95;4.90;;;6.80;99.90;;;;;;5060072;28;20032;-87
2023/03/10 04:34:38;;;;;;;10.90;5.40;;;6.80;99.90;;;;;;5076463;28;20016;-88
2023/03/10 04:37:05;;;;;;;12.48;5.43;;;6.80;99.90;;;;;;5060053;28;20107;-87
2023/03/10 04:39:35;;;;;;;11.60;6.60;;;6.80;99.90;;;;;;5060249;28;20440;-87
2023/03/10 04:42:02;;;;;;;12.57;6.72;;;6.80;99.90;;;;;;5059814;28;20024;-87
2023/03/10 04:44:28;;;;;;;14.40;4.93;;;6.80;99.90;;;;;;5110581;28;20032;-87
2023/03/10 04:46:53;;;;;;;10.25;6.03;;;6.70;99.90;;;;;;5076947;28;20045;-87
2023/03/10 04:49:19;;;;;;;14.13;6.28;;;6.80;99.90;;;;;;5093223;28;20054;-88
2023/03/10 04:51:47;;;;;;;17.98;8.55;;;6.80;99.90;;;;;;5093037;28;20028;-87
2023/03/10 04:54:13;;;;;;;12.38;8.20;;;6.80;99.90;;;;;;5093327;28;20503;-89
2023/03/10 04:56:39;;;;;;;24.35;8.48;;;6.80;99.90;;;;;;5076267;28;20032;-88
2023/03/10 04:59:06;;;;;;;11.73;7.10;;;6.70;99.90;;;;;;5059338;28;20103;-88
2023/03/10 05:01:33;;;;;;;12.90;6.68;;;6.70;99.90;;;;;;5059446;28;20028;-87
2023/03/10 05:04:03;;;;;;;8.73;6.35;;;6.70;99.90;;;;;;5092718;28;20020;-88
2023/03/10 05:06:28;;;;;;;15.48;7.65;;;6.70;99.90;;;;;;5076317;28;20116;-88
2023/03/10 05:09:05;;;;;;;13.48;7.18;;;6.70;99.90;;;;;;5110235;28;20021;-88
2023/03/10 05:11:31;;;;;;;16.40;7.40;;;6.70;99.90;;;;;;5059638;28;20020;-88
2023/03/10 05:13:57;;;;;;;9.07;5.38;;;6.70;99.90;;;;;;5059765;28;20027;-88
2023/03/10 05:16:23;;;;;;;10.98;4.85;;;6.70;99.90;;;;;;5059717;28;20528;-89
2023/03/10 05:18:52;;;;;;;13.73;4.00;;;6.70;99.90;;;;;;5052686;28;20103;-88
2023/03/10 05:21:22;;;;;;;14.57;4.00;;;6.60;99.90;;;;;;5060166;28;20105;-88
2023/03/10 05:23:49;;;;;;;12.10;4.32;;;6.60;99.90;;;;;;5059779;28;20069;-88
2023/03/10 05:26:46;;;;;;;16.08;4.80;;;6.70;99.90;;;;;;5076428;28;20031;-89
2023/03/10 05:29:12;;;;;;;10.90;3.58;;;6.70;99.90;;;;;;5092935;28;20050;-89
2023/03/10 05:31:43;;;;;;;12.95;4.30;;;6.70;99.90;;;;;;5060005;28;20038;-88
2023/03/10 05:34:14;;;;;;;16.47;5.40;;;6.70;99.90;;;;;;5094109;28;20437;-88
2023/03/10 05:36:41;;;;;;;7.80;3.00;;;6.70;99.90;;;;;;5059392;28;20278;-88
2023/03/10 05:39:08;;;;;;;17.83;4.07;;;6.70;99.90;;;;;;5059204;28;20059;-88
2023/03/10 05:41:38;;;;;;;;;;;6.70;99.90;;;;;;5059754;28;20073;-88
2023/03/10 05:44:04;;;;;;;5.63;3.15;;;6.70;99.90;;;;;;5109670;28;20305;-88
2023/03/10 05:46:33;;;;;;;6.80;2.90;;;6.70;99.90;;;;;;5093141;28;20119;-88
2023/03/10 05:48:59;;;;;;;16.20;3.50;;;6.70;99.90;;;;;;5059281;28;20048;-88
2023/03/10 05:51:24;;;;;;;9.18;3.10;;;6.60;99.90;;;;;;5059098;28;20746;-88
2023/03/10 05:53:50;;;;;;;8.95;3.20;;;6.50;99.90;;;;;;5058280;28;20021;-91
2023/03/10 05:56:22;;;;;;;16.15;3.47;;;6.40;99.90;;;;;;5061908;28;20028;-89
2023/03/10 05:58:52;;;;;;;14.45;3.13;;;6.20;99.90;;;;;;5060895;28;20032;-90
2023/03/10 06:01:22;;;;;;;10.07;3.10;;;6.20;99.90;;;;;;5061306;28;20024;-91
2023/03/10 06:03:51;;;;;;;7.88;3.50;;;6.20;99.90;;;;;;5060014;28;20016;-91
2023/03/10 06:06:16;;;;;;;17.58;3.65;;;6.20;99.90;;;;;;5060213;28;20085;-90
2023/03/10 06:08:42;;;;;;;12.70;3.88;;;6.20;99.90;;;;;;5076948;28;20451;-91
2023/03/10 06:11:08;;;;;;;11.93;3.28;;;6.30;99.90;;;;;;5060168;28;20016;-91
2023/03/10 06:13:34;;;;;;;5.55;2.83;;;6.40;99.90;;;;;;5062955;28;20464;-91
2023/03/10 06:16:02;;;;;;;17.05;3.03;;;6.40;99.90;;;;;;5064212;28;20471;-92
2023/03/10 06:18:28;;;;;;;10.30;3.30;;;6.40;99.90;;;;;;5063841;28;20039;-91
2023/03/10 06:20:53;;;;;;;6.00;3.25;;;6.40;99.90;;;;;;5063858;28;20036;-90
2023/03/10 06:23:20;;;;;;;11.35;3.22;;;6.50;99.90;;;;;;5063555;28;20028;-91
2023/03/10 06:25:58;;;;;;;12.25;5.72;;;6.60;99.90;;;;;;5063683;28;20024;-91
2023/03/10 06:28:24;;;;;;;12.90;3.22;;;6.60;99.90;;;;;;5096955;28;20024;-91
2023/03/10 06:30:55;;;;;;;15.65;3.40;;;6.60;99.90;;;;;;5080184;28;20103;-91
2023/03/10 06:33:23;;;;;;;9.02;2.92;;;6.60;99.90;;;;;;5063517;28;20510;-91
2023/03/10 06:35:48;;;;;;;22.73;2.97;;;6.70;99.90;;;;;;5063470;28;20028;-91
2023/03/10 06:38:14;;;;;;;21.27;5.25;;;6.70;99.90;;;;;;5063457;28;20050;-91
2023/03/10 06:40:40;;;;;;;11.73;3.25;;;6.70;99.90;;;;;;5097517;28;20031;-91
2023/03/10 06:43:06;;;;;;;10.52;2.83;;;6.70;99.90;;;;;;5064032;28;20027;-90
2023/03/10 06:45:31;;;;;;;8.93;3.40;;;6.80;99.90;;;;;;5059365;28;20028;-91
2023/03/10 06:47:57;;;;;;;13.45;4.53;;;6.80;99.90;;;;;;5097374;28;20020;-91
2023/03/10 06:50:26;;;;;;;9.93;3.03;;;6.80;99.90;;;;;;5056235;28;20049;-91
2023/03/10 06:52:52;;;;;;;13.18;2.88;;;6.80;99.90;;;;;;5060066;28;20032;-91
2023/03/10 06:55:18;;;;;;;12.60;2.92;;;6.90;99.90;;;;;;5054775;28;20054;-91
2023/03/10 06:57:43;;;;;;;11.35;2.95;;;6.90;99.90;;;;;;5058738;28;20032;-91
2023/03/10 07:00:14;;;;;;;13.00;3.55;;;6.90;99.90;;;;;;5062897;28;20019;-91
2023/03/10 07:02:40;;;;;;;12.75;2.85;;;6.80;99.90;;;;;;5056660;28;20518;-91
2023/03/10 07:05:10;;;;;;;13.50;2.95;;;6.80;99.90;;;;;;5054305;28;20119;-91
2023/03/10 07:07:36;;;;;;;20.48;2.90;;;6.80;99.90;;;;;;5071856;28;20032;-91
2023/03/10 07:10:03;;;;;;;7.78;2.50;;;6.70;99.90;;;;;;5061895;28;20031;-91
2023/03/10 07:12:28;;;;;;;10.77;2.65;;;6.70;99.90;;;;;;5069504;28;20029;-90
2023/03/10 07:18:42;;;;;;;6.65;2.65;;;6.80;99.90;;;;;;5089985;28;20073;-90
2023/03/10 07:21:10;;;;;;;10.88;3.72;;;6.80;99.90;;;;;;5073725;28;20031;-91
2023/03/10 07:23:37;;;;;;;6.65;2.63;;;6.90;99.90;;;;;;5070761;28;20039;-90
2023/03/10 07:26:06;;;;;;;14.13;3.10;;;6.90;99.90;;;;;;5072748;28;20119;-91
2023/03/10 07:28:33;;;;;;;7.43;2.28;;;6.90;99.90;;;;;;5085879;28;20052;-91
2023/03/10 07:31:05;;;;;;;10.57;1.90;;;6.90;99.90;;;;;;5074920;28;20027;-91
2023/03/10 07:33:31;;;;;;;7.72;2.45;;;7.00;99.90;;;;;;5069401;28;20048;-90
2023/03/10 07:35:58;;;;;;;10.70;2.00;;;7.00;99.90;;;;;;5059933;28;20088;-90
2023/03/10 07:38:24;;;;;;;12.43;2.25;;;7.10;99.90;;;;;;5071573;28;20024;-90
2023/03/10 07:41:10;;;;;;;9.57;1.77;;;7.20;99.90;;;;;;5073719;28;20467;-91
2023/03/10 07:43:36;;;;;;;7.57;1.85;;;7.20;99.90;;;;;;5087602;28;20032;-90
2023/03/10 07:46:07;;;;;;;10.68;2.05;;;7.20;99.90;;;;;;5065660;28;20016;-90
2023/03/10 07:48:33;;;;;;;7.47;2.03;;;7.20;99.90;;;;;;5058749;28;20119;-91
2023/03/10 07:50:59;;;;;;;7.50;1.90;;;7.20;99.90;;;;;;5093634;28;20258;-90
2023/03/10 07:53:25;;;;;;;11.32;2.33;;;7.30;99.90;;;;;;5073221;28;20530;-91
2023/03/10 07:55:51;;;;;;;7.18;1.98;;;7.30;99.90;;;;;;5053221;28;20082;-91
2023/03/10 07:58:18;;;;;;;6.07;1.30;;;7.40;99.90;;;;;;5071209;28;20024;-91
2023/03/10 08:00:44;;;;;;;4.00;1.85;;;7.40;99.90;;;;;;5054090;28;20116;-90
2023/03/10 08:03:09;;;;;;;9.70;3.08;;;7.30;99.90;;;;;;5057542;28;20047;-90
2023/03/10 08:05:42;;;;;;;6.68;1.73;;;7.30;99.90;;;;;;5067731;28;20056;-90
2023/03/10 08:08:08;;;;;;;7.63;2.05;;;7.30;99.90;;;;;;5072465;28;20028;-90
2023/03/10 08:10:34;;;;;;;11.52;3.17;;;7.20;99.90;;;;;;5092957;28;20028;-90
2023/03/10 08:12:59;;;;;;;9.25;2.50;;;7.10;99.90;;;;;;5055149;28;20028;-91
2023/03/10 08:15:26;;;;;;;7.10;2.25;;;7.10;99.90;;;;;;5074525;28;20032;-91
2023/03/10 08:17:52;;;;;;;6.95;2.15;;;7.00;99.90;;;;;;5078227;28;20031;-90
2023/03/10 08:20:18;;;;;;;9.52;2.55;;;6.90;99.90;;;;;;5070327;28;20032;-90
2023/03/10 08:22:44;;;;;;;8.88;1.90;;;7.20;99.90;;;;;;5052846;28;20119;-90
2023/03/10 08:25:11;;;;;;;7.70;1.70;;;7.20;99.90;;;;;;5057101;28;20475;-90
2023/03/10 08:27:37;;;;;;;8.95;2.00;;;7.20;99.90;;;;;;5070528;28;20029;-91
2023/03/10 08:30:04;;;;;;;7.72;1.70;;;7.20;99.90;;;;;;5060710;28;20024;-89
2023/03/10 08:32:30;;;;;;;3.40;1.27;;;7.00;99.90;;;;;;5061186;28;20040;-90
2023/03/10 08:34:56;;;;;;;5.40;1.33;;;6.90;99.90;;;;;;5050529;28;20030;-91
2023/03/10 08:37:21;;;;;;;6.03;1.17;;;6.80;99.90;;;;;;5061606;28;20032;-90
2023/03/10 08:39:48;;;;;;;5.47;1.50;;;6.60;99.90;;;;;;5054669;28;20390;-89
2023/03/10 08:42:14;;;;;;;1.67;0.90;;;6.50;99.90;;;;;;5069533;28;20111;-91
2023/03/10 08:44:40;;;;;;;2.08;1.00;;;6.40;99.90;;;;;;5087687;28;20059;-90
2023/03/10 08:47:22;;;;;;;2.38;0.80;;;6.30;99.90;;;;;;5056869;28;20016;-90
2023/03/10 08:49:48;;;;;;;4.45;1.20;;;6.30;99.90;;;;;;5085483;28;20429;-89
2023/03/10 08:52:14;;;;;;;9.50;1.20;;;6.20;99.90;;;;;;5054300;28;20070;-90
2023/03/10 08:54:40;;;;;;;9.15;1.52;;;6.10;99.90;;;;;;5064429;28;20082;-89
2023/03/10 08:57:09;;;;;;;11.43;1.63;;;6.10;99.90;;;;;;5062583;28;20027;-90
2023/03/10 08:59:35;;;;;;;6.93;1.30;;;6.10;99.90;;;;;;5056473;28;20028;-90
2023/03/10 09:02:01;;;;;;;5.75;1.58;;;6.10;99.90;;;;;;5057766;28;20115;-90
2023/03/10 09:04:29;;;;;;;8.43;1.50;;;6.10;99.90;;;;;;5063555;28;20100;-90
2023/03/10 09:06:55;;;;;;;8.43;2.20;;;6.20;99.90;;;;;;5058506;28;20028;-90
2023/03/10 09:09:21;;;;;;;17.45;1.98;;;6.30;99.90;;;;;;5063208;28;20035;-90
2023/03/10 09:11:46;;;;;;;8.38;1.88;;;6.30;99.90;;;;;;5063466;28;20067;-90
2023/03/10 09:14:15;;;;;;;5.97;2.08;;;6.30;99.90;;;;;;5062666;28;20067;-90
2023/03/10 09:16:41;;;;;;;8.45;3.17;;;6.30;99.90;;;;;;5061170;28;20035;-90
2023/03/10 09:19:07;;;;;;;15.43;2.50;;;6.40;99.90;;;;;;5062969;28;20028;-90
2023/03/10 09:21:33;;;;;;;8.43;3.30;;;6.40;99.90;;;;;;5061866;28;20032;-90
2023/03/10 09:23:59;;;;;;;8.05;2.30;;;6.40;99.90;;;;;;5092508;28;20020;-90
2023/03/10 09:26:25;;;;;;;9.80;2.72;;;6.40;99.90;;;;;;5062554;28;20020;-90
2023/03/10 09:28:51;;;;;;;14.10;2.83;;;6.40;99.90;;;;;;5061679;28;20028;-91
2023/03/10 09:31:21;;;;;;;10.82;2.70;;;6.40;99.90;;;;;;5077239;28;20065;-90
2023/03/10 09:33:48;;;;;;;10.43;2.65;;;6.60;99.90;;;;;;5062045;28;20486;-90
2023/03/10 09:36:14;;;;;;;8.77;2.80;;;6.70;99.90;;;;;;5076950;28;20024;-90
2023/03/10 09:38:40;;;;;;;8.05;3.25;;;6.60;99.90;;;;;;5060013;28;20034;-90
2023/03/10 09:41:18;;;;;;;11.23;2.90;;;6.70;99.90;;;;;;5060202;28;20031;-90
2023/03/10 09:43:51;;;;;;;5.82;2.53;;;6.70;99.90;;;;;;5090938;28;20029;-91
2023/03/10 09:46:44;;;;;;;14.27;3.88;;;6.70;99.90;;;;;;5060466;28;20054;-90
2023/03/10 09:49:21;;;;;;;7.90;2.90;;;6.90;99.90;;;;;;5086799;28;20375;-90
2023/03/10 09:51:48;;;;;;;13.43;3.72;;;6.90;99.90;;;;;;5060494;28;20027;-90
2023/03/10 09:54:53;;;;;;;14.35;3.08;;;7.10;99.90;;;;;;5094375;28;20028;-89
2023/03/10 09:57:21;;;;;;;15.63;3.55;;;7.20;99.90;;;;;;5078022;28;20051;-90
2023/03/10 09:59:49;;;;;;;15.15;3.42;;;7.10;99.90;;;;;;5095770;28;20063;-90
2023/03/10 10:02:38;;;;;;;14.73;3.80;;;7.10;99.90;;;;;;5061176;28;20048;-89
2023/03/10 10:05:22;;;;;;;18.40;3.63;;;7.10;99.90;;;;;;5088452;28;20031;-90
2023/03/10 10:07:53;;;;;;;10.10;2.30;;;7.10;99.90;;;;;;5060923;28;20064;-89
2023/03/10 10:10:28;;;;;;;11.38;2.17;;;7.00;99.90;;;;;;5061883;28;20450;-91
2023/03/10 10:12:57;;;;;;;9.55;2.17;;;7.10;99.90;;;;;;5079460;28;20444;-90
2023/03/10 10:15:25;;;;;;;12.38;2.88;;;7.00;99.90;;;;;;5063195;28;20051;-91
2023/03/10 10:18:22;;;;;;;10.57;2.05;;;7.10;99.90;;;;;;5097303;28;20028;-90
2023/03/10 10:20:52;;;;;;;12.98;2.40;;;7.10;99.90;;;;;;5093575;28;20032;-90
2023/03/10 10:23:20;;;;;;;10.38;3.20;;;7.10;99.90;;;;;;5062330;28;20059;-90
2023/03/10 10:25:53;;;;;;;9.13;2.72;;;7.10;99.90;;;;;;5077935;28;20481;-90
2023/03/10 10:28:40;;;;;;;12.25;3.92;;;6.90;99.90;;;;;;5061661;28;20024;-90
2023/03/10 10:31:13;;;;;;;10.63;2.67;;;6.90;99.90;;;;;;5088435;28;20016;-90
2023/03/10 10:34:02;;;;;;;12.93;3.00;;;6.90;99.90;;;;;;5074617;28;20456;-91
2023/03/10 10:36:35;;;;;;;9.27;3.30;;;6.70;99.90;;;;;;5055942;28;20057;-91
2023/03/10 10:39:03;;;;;;;13.18;3.08;;;6.70;99.90;;;;;;5077546;28;20447;-91
2023/03/10 10:41:33;;;;;;;13.35;3.35;;;6.70;99.90;;;;;;5079871;28;20500;-90
2023/03/10 10:44:13;;;;;;;16.20;3.28;;;6.70;99.90;;;;;;5053234;28;20028;-90
2023/03/10 10:46:52;;;;;;;15.68;3.40;;;6.70;99.90;;;;;;5089225;28;20028;-89
2023/03/10 10:49:22;;;;;;;20.83;3.75;;;6.70;99.90;;;;;;5053766;28;20021;-90
2023/03/10 10:51:58;;;;;;;14.43;3.28;;;6.70;99.90;;;;;;5092335;28;20043;-90
2023/03/10 10:54:39;;;;;;;14.20;3.40;;;6.60;99.90;;;;;;5064746;28;20055;-90
2023/03/10 10:57:34;;;;;;;19.77;3.80;;;6.60;99.90;;;;;;5065792;28;20070;-89
2023/03/10 11:00:36;;;;;;;10.32;3.92;;;6.60;99.90;;;;;;5105056;28;20035;-90
2023/03/10 11:03:19;;;;;;;9.38;3.75;;;6.60;99.90;;;;;;5100730;28;20028;-90
2023/03/10 11:05:44;;;;;;;14.38;5.18;;;6.60;99.90;;;;;;5069820;28;20021;-91
2023/03/10 11:08:16;;;;;;;8.38;3.80;;;6.60;99.90;;;;;;5068591;28;20030;-91
2023/03/10 11:10:47;;;;;;;18.77;5.53;;;6.60;99.90;;;;;;5097078;28;20032;-90
2023/03/10 11:13:26;;;;;;;16.40;4.28;;;6.50;99.90;;;;;;5074922;28;20095;-90
2023/03/10 11:16:14;;;;;;;18.88;3.92;;;6.50;99.90;;;;;;5062148;28;20557;-90
2023/03/10 11:18:47;;;;;;;9.38;3.22;;;6.60;99.90;;;;;;5073665;28;20047;-90
2023/03/10 11:21:22;;;;;;;12.60;3.35;;;6.60;99.90;;;;;;5085389;28;20032;-90
2023/03/10 11:23:58;;;;;;;12.20;3.95;;;6.70;99.90;;;;;;5061226;28;20059;-90
2023/03/10 11:26:26;;;;;;;6.18;2.80;;;6.90;99.90;;;;;;5066343;28;20463;-90
2023/03/10 11:29:21;;;;;;;14.70;2.85;;;7.00;99.90;;;;;;5062724;28;20028;-91
2023/03/10 11:32:02;;;;;;;6.28;2.38;;;7.00;99.90;;;;;;5063053;28;20101;-91
2023/03/10 11:34:30;;;;;;;4.93;1.40;;;7.10;99.90;;;;;;5075060;28;20055;-91
2023/03/10 11:37:38;;;;;;;6.53;2.13;;;7.10;99.90;;;;;;5062838;28;20521;-90
2023/03/10 11:40:28;;;;;;;4.25;1.30;;;7.10;99.90;;;;;;5064275;28;20028;-89
2023/03/10 11:43:21;;;;;;;5.72;1.60;;;7.00;99.90;;;;;;5095710;28;20032;-91
2023/03/10 11:45:53;;;;;;;6.00;1.65;;;7.00;99.90;;;;;;5093720;28;20065;-91
2023/03/10 11:48:35;;;;;;;2.90;1.20;;;7.10;99.90;;;;;;5063354;28;20475;-91
2023/03/10 11:51:05;;;;;;;4.75;1.70;;;7.10;99.90;;;;;;5062946;28;20123;-91
2023/03/10 11:53:50;;;;;;;8.45;1.90;;;7.10;99.90;;;;;;5062703;28;20035;-91
2023/03/10 11:56:19;;;;;;;2.78;0.98;;;7.10;99.90;;;;;;5089785;28;20032;-91
2023/03/10 11:58:47;;;;;;;5.82;1.25;;;7.10;99.90;;;;;;5063138;28;20024;-91
2023/03/10 12:01:19;;;;;;;3.47;1.58;;;7.10;99.90;;;;;;5113502;28;20494;-91
2023/03/10 12:03:49;;;;;;;5.18;3.00;;;7.00;99.90;;;;;;5063285;28;20467;-91
2023/03/10 12:06:59;;;;;;;4.87;2.60;;;6.80;99.90;;;;;;5096740;28;20043;-90
2023/03/10 12:09:47;;;;;;;7.32;1.75;;;6.70;99.90;;;;;;5090322;28;20348;-91
2023/03/10 12:12:37;;;;;;;6.50;1.73;;;6.60;99.90;;;;;;5062345;28;20032;-91
2023/03/10 12:15:11;;;;;;;4.72;1.95;;;6.60;99.90;;;;;;5062743;28;20039;-91
2023/03/10 12:17:39;;;;;;;14.18;4.55;;;6.70;99.90;;;;;;5062653;28;20032;-90
2023/03/10 12:20:14;;;;;;;8.25;2.03;;;6.80;99.90;;;;;;5061739;28;20031;-90
2023/03/10 12:22:59;;;;;;;4.45;1.83;;;6.70;99.90;;;;;;5095105;28;20039;-90
2023/03/10 12:25:28;;;;;;;6.28;2.20;;;6.70;99.90;;;;;;5091648;28;20368;-90
2023/03/10 12:28:16;;;;;;;8.97;2.93;;;6.60;99.90;;;;;;5074190;28;20075;-90
2023/03/10 12:31:09;;;;;;;3.63;1.80;;;6.50;99.90;;;;;;5079142;28;20042;-91
2023/03/10 12:33:36;;;;;;;4.57;2.25;;;6.40;99.90;;;;;;5073519;28;20051;-90
2023/03/10 12:36:20;;;;;;;4.50;1.70;;;6.40;99.90;;;;;;5095094;28;20043;-90
2023/03/10 12:38:52;;;;;;;5.70;2.03;;;6.30;99.90;;;;;;5060822;28;20028;-89
2023/03/10 12:41:27;;;;;;;3.25;1.80;;;6.30;99.90;;;;;;5094488;28;20494;-90
2023/03/10 12:44:21;;;;;;;8.77;2.67;;;6.30;99.90;;;;;;5061298;28;20047;-91
2023/03/10 12:47:09;;;;;;;4.63;2.20;;;6.30;99.90;;;;;;5058137;28;20035;-89
2023/03/10 12:50:02;;;;;;;5.00;2.38;;;6.30;99.90;;;;;;5061103;28;20051;-89
2023/03/10 12:52:43;;;;;;;3.30;2.60;;;6.30;99.90;;;;;;5069493;28;20138;-91
2023/03/10 12:55:24;;;;;;;4.75;2.83;;;6.30;99.90;;;;;;5061917;28;20024;-89
2023/03/10 12:57:53;;;;;;;5.63;2.85;;;6.30;99.90;;;;;;5091788;28;20032;-90
2023/03/10 13:00:59;;;;;;;11.43;5.43;;;6.30;99.90;;;;;;5095257;28;20059;-90
2023/03/10 13:03:34;;;;;;;6.68;3.05;;;6.30;99.90;;;;;;5095285;28;20035;-90
2023/03/10 13:06:06;;;;;;;4.35;2.60;;;6.40;99.90;;;;;;5093180;28;20028;-90
2023/03/10 13:08:46;;;;;;;4.68;2.30;;;6.40;99.90;;;;;;5060671;28;20028;-90
2023/03/10 13:11:40;;;;;;;3.35;2.50;;;6.40;99.90;;;;;;5077638;28;20048;-90
2023/03/10 13:14:19;;;;;;;5.28;2.53;;;6.30;99.90;;;;;;5093482;28;20103;-91
2023/03/10 13:16:58;;;;;;;3.30;2.35;;;6.30;99.90;;;;;;5060083;28;20085;-90